Assembly, North Carolina
Current Conditions -  °F | °C
As of 2:18 PM on Thursday 27 Nov 2014 (Local Time) from KAVL Reporting Station
Light Snow Light Snow  
Wind Chill: 26°   Ceiling: 2800
Heat Index: 36°   Visibility: 10mi
Dew Point: 27°   Wind: 17mph
Humidity: 70%   Direction: 330°NNW
Pressure: 30.16"   Gusts: NA
Location:  35.5251°N, 82.9723°W
Report Text: KAVL 271918Z 33015KT 10SM -SN BKN028 OVC036 02/M03 A3016 RMK AO2 UPB07E14SNE07B14 P0000 T00221028
Loading
Personal Weather Stations






























Interactive Weather Map New forecast layout! Learn more

10-Day Weather Forecast

Advertisements
Track Severe Weather on mobile